Time;durP1;ratioP1;P1;durP2;ratioP2;P2;SDS_P1;SDS_P2;PMS_P1;PMS_P2;Temp;Humidity;BMP_temperature;BMP_pressure;BME280_temperature;BME280_humidity;BME280_pressure;Samples;Min_cycle;Max_cycle;Signal;HPM_P1;HPM_P2
2023/05/25 00:00:18;;;;;;;11.82;4.40;;;;;;;10.31;87.05;102661.47;6248545;22;20409;-76
2023/05/25 00:02:45;;;;;;;11.68;4.53;;;;;;;10.27;86.90;102666.06;6247712;22;20541;-76
2023/05/25 00:05:13;;;;;;;6.53;3.88;;;;;;;10.25;86.84;102658.44;6250310;22;20016;-77
2023/05/25 00:07:39;;;;;;;7.25;3.90;;;;;;;10.21;87.19;102660.38;6250153;22;20016;-76
2023/05/25 00:10:06;;;;;;;6.93;4.13;;;;;;;10.19;86.88;102660.00;6250319;22;20016;-77
2023/05/25 00:12:33;;;;;;;8.50;4.32;;;;;;;10.17;87.11;102659.59;6248166;22;20028;-77
2023/05/25 00:15:00;;;;;;;10.93;4.20;;;;;;;10.14;86.77;102659.63;6250608;22;20129;-76
2023/05/25 00:17:28;;;;;;;13.60;4.20;;;;;;;10.08;87.24;102653.19;6249902;22;20023;-76
2023/05/25 00:19:56;;;;;;;7.75;4.30;;;;;;;10.06;87.67;102658.91;6250725;22;20494;-76
2023/05/25 00:22:23;;;;;;;8.90;4.45;;;;;;;10.04;88.06;102669.19;6250003;22;20027;-77
2023/05/25 00:24:50;;;;;;;9.43;4.60;;;;;;;9.98;87.84;102666.19;6248893;22;20338;-77
2023/05/25 00:27:16;;;;;;;8.38;4.35;;;;;;;9.96;88.06;102671.16;6249393;22;20017;-76
2023/05/25 00:29:43;;;;;;;10.70;4.43;;;;;;;9.93;88.20;102671.16;6248854;22;20052;-77
2023/05/25 00:32:09;;;;;;;6.25;4.20;;;;;;;9.89;88.09;102673.09;6250048;22;20099;-76
2023/05/25 00:34:36;;;;;;;13.57;4.93;;;;;;;9.86;88.68;102674.59;6250183;22;20502;-76
2023/05/25 00:37:02;;;;;;;11.43;4.63;;;;;;;9.85;88.81;102678.41;6250679;22;20096;-76
2023/05/25 00:39:29;;;;;;;9.20;4.30;;;;;;;9.82;88.64;102684.50;6247837;22;20075;-76
2023/05/25 00:41:57;;;;;;;11.60;4.93;;;;;;;9.78;88.72;102688.31;6249784;22;20435;-76
2023/05/25 00:44:24;;;;;;;8.35;4.20;;;;;;;9.73;88.86;102686.81;6247589;22;20056;-77
2023/05/25 00:46:51;;;;;;;10.93;4.85;;;;;;;9.70;88.54;102682.28;6248727;22;20364;-76
2023/05/25 00:49:20;;;;;;;14.65;4.60;;;;;;;9.65;89.14;102674.69;6249487;22;20074;-76
2023/05/25 00:51:47;;;;;;;7.97;4.07;;;;;;;9.61;89.20;102673.94;6250401;22;20016;-76
2023/05/25 00:54:17;;;;;;;11.25;4.05;;;;;;;9.56;89.11;102675.13;6250161;22;20019;-76
2023/05/25 00:56:52;;;;;;;8.48;4.20;;;;;;;9.54;89.04;102677.41;6249345;22;20462;-77
2023/05/25 00:59:35;;;;;;;8.60;3.85;;;;;;;9.51;88.97;102686.16;6247624;22;20420;-76
2023/05/25 01:02:15;;;;;;;10.20;3.97;;;;;;;9.46;88.95;102683.13;6248534;22;20079;-75
2023/05/25 01:04:51;;;;;;;7.68;4.72;;;;;;;9.44;88.88;102682.75;6248623;22;20055;-76
2023/05/25 01:07:24;;;;;;;12.13;4.57;;;;;;;9.39;88.82;102681.22;6247958;22;20427;-76
2023/05/25 01:09:58;;;;;;;7.47;4.47;;;;;;;9.34;89.34;102674.41;6249920;22;20019;-76
2023/05/25 01:12:28;;;;;;;4.95;4.50;;;;;;;9.29;89.42;102682.78;6249358;22;20055;-76
2023/05/25 01:14:55;;;;;;;7.65;3.97;;;;;;;9.24;89.70;102682.41;6248196;22;20039;-76
2023/05/25 01:17:25;;;;;;;12.13;4.22;;;;;;;9.21;89.46;102683.16;6249199;22;20031;-76
2023/05/25 01:19:51;;;;;;;10.15;4.57;;;;;;;9.20;89.86;102692.28;6249946;22;20526;-76
2023/05/25 01:22:44;;;;;;;13.77;4.20;;;;;;;9.15;89.71;102690.03;6249845;22;20357;-76
2023/05/25 01:25:39;;;;;;;6.63;4.53;;;;;;;9.12;89.85;102694.22;6222285;22;20466;-76
2023/05/25 01:28:08;;;;;;;6.38;4.00;;;;;;;9.09;90.07;102687.00;6249874;22;20071;-75
2023/05/25 01:30:38;;;;;;;8.68;4.47;;;;;;;9.08;90.28;102701.41;6222480;22;20020;-76
2023/05/25 01:33:06;;;;;;;8.52;4.65;;;;;;;9.03;90.78;102699.13;6248086;22;20020;-76
2023/05/25 01:35:34;;;;;;;7.97;4.28;;;;;;;9.00;90.50;102692.69;6249584;22;20063;-76
2023/05/25 01:38:01;;;;;;;5.70;4.50;;;;;;;8.97;90.83;102692.69;6247481;22;20100;-76
2023/05/25 01:40:28;;;;;;;6.35;4.60;;;;;;;8.94;90.96;102696.09;6247624;22;20020;-76
2023/05/25 01:42:54;;;;;;;6.82;4.10;;;;;;;8.90;90.97;102690.78;6249862;22;20020;-76
2023/05/25 01:45:21;;;;;;;9.20;4.13;;;;;;;8.87;91.13;102690.78;6247576;22;20020;-75
2023/05/25 01:48:18;;;;;;;5.57;3.90;;;;;;;8.85;90.95;102695.72;6222846;22;20075;-76
2023/05/25 01:50:57;;;;;;;7.47;4.70;;;;;;;8.82;90.31;102696.47;6248712;22;20013;-75
2023/05/25 01:53:35;;;;;;;9.80;3.95;;;;;;;8.76;90.23;102703.31;6248535;22;20071;-76
2023/05/25 01:56:07;;;;;;;5.00;3.72;;;;;;;8.71;89.96;102706.34;6248468;22;20056;-76
2023/05/25 01:58:37;;;;;;;;;;;;;;;8.67;89.15;102703.69;6250102;22;20066;-76
2023/05/25 02:01:07;;;;;;;5.82;3.40;;;;;;;8.59;89.54;102707.47;6247911;22;19926;-76
2023/05/25 02:03:34;;;;;;;8.85;3.55;;;;;;;8.55;89.36;102715.44;6247456;22;20433;-76
2023/05/25 02:06:02;;;;;;;5.13;3.30;;;;;;;8.51;89.43;102713.91;6248245;22;20017;-76
2023/05/25 02:08:28;;;;;;;5.15;3.55;;;;;;;8.47;89.15;102708.59;6248407;22;20013;-76
2023/05/25 02:10:58;;;;;;;6.38;3.50;;;;;;;8.43;89.31;102704.41;6248023;22;20020;-76
2023/05/25 02:13:25;;;;;;;6.78;3.85;;;;;;;8.41;89.07;102710.09;6247685;22;20526;-75
2023/05/25 02:15:51;;;;;;;4.10;3.33;;;;;;;8.36;89.10;102702.53;6250329;22;20016;-76
2023/05/25 02:18:18;;;;;;;4.80;3.70;;;;;;;8.32;89.18;102707.03;6247231;22;20020;-75
2023/05/25 02:20:46;;;;;;;3.72;3.35;;;;;;;8.27;89.44;102702.84;6248057;22;20020;-76
2023/05/25 02:23:12;;;;;;;5.85;3.70;;;;;;;8.23;89.21;102704.72;6248939;22;20020;-76
2023/05/25 02:25:41;;;;;;;4.15;3.75;;;;;;;8.19;88.63;102697.91;6249318;22;20047;-75
2023/05/25 02:28:08;;;;;;;5.85;3.65;;;;;;;8.14;88.90;102692.94;6247496;22;20027;-76
2023/05/25 02:30:34;;;;;;;4.85;3.50;;;;;;;8.14;88.83;102704.31;6222609;22;20409;-76
2023/05/25 02:33:01;;;;;;;7.03;3.50;;;;;;;8.10;89.01;102702.78;6249896;22;20028;-76
2023/05/25 02:35:28;;;;;;;7.85;3.97;;;;;;;8.03;90.07;102704.28;6247403;22;20016;-76
2023/05/25 02:37:54;;;;;;;4.88;3.50;;;;;;;8.01;90.33;102705.78;6247246;22;20048;-75
2023/05/25 02:40:21;;;;;;;4.50;3.78;;;;;;;7.95;89.62;102710.72;6247569;22;20020;-75
2023/05/25 02:42:47;;;;;;;4.22;3.42;;;;;;;7.92;89.67;102711.47;6248082;22;20028;-76
2023/05/25 02:45:15;;;;;;;6.78;3.80;;;;;;;7.90;89.57;102710.31;6222629;22;20017;-75
2023/05/25 02:47:42;;;;;;;7.50;4.13;;;;;;;7.89;90.13;102714.84;6222334;22;20023;-75
2023/05/25 02:50:09;;;;;;;7.15;3.28;;;;;;;7.87;90.15;102703.84;6247481;22;20024;-75
2023/05/25 02:52:41;;;;;;;6.95;3.95;;;;;;;7.82;90.30;102714.81;6247569;22;20056;-75
2023/05/25 02:55:17;;;;;;;6.93;4.05;;;;;;;7.80;89.87;102718.97;6247439;22;20051;-75
2023/05/25 02:57:44;;;;;;;6.30;3.72;;;;;;;7.76;90.32;102720.84;6247733;22;20028;-75
2023/05/25 03:00:20;;;;;;;6.07;4.07;;;;;;;7.73;90.15;102713.63;6247514;22;20071;-76
2023/05/25 03:02:47;;;;;;;5.57;3.80;;;;;;;7.68;90.32;102720.81;6247840;22;20021;-75
2023/05/25 03:05:16;;;;;;;5.65;4.18;;;;;;;7.67;89.98;102719.28;6246752;22;20087;-76
2023/05/25 03:07:43;;;;;;;7.47;3.58;;;;;;;7.62;89.92;102716.97;6247951;22;20016;-75
2023/05/25 03:10:10;;;;;;;5.28;3.72;;;;;;;7.59;90.20;102717.75;6249351;22;20148;-75
2023/05/25 03:12:37;;;;;;;5.00;3.78;;;;;;;7.55;90.23;102716.19;6247184;22;20021;-75
2023/05/25 03:15:04;;;;;;;4.07;3.22;;;;;;;7.52;90.27;102732.84;6249895;22;20048;-75
2023/05/25 03:17:32;;;;;;;6.82;3.97;;;;;;;7.49;90.74;102729.03;6247423;22;20023;-76
2023/05/25 03:19:58;;;;;;;5.05;3.65;;;;;;;7.47;91.19;102726.00;6247091;22;20027;-75
2023/05/25 03:22:26;;;;;;;5.93;4.05;;;;;;;7.45;91.20;102732.78;6247052;22;20025;-75
2023/05/25 03:24:52;;;;;;;6.38;3.90;;;;;;;7.41;91.50;102732.75;6249668;22;20016;-75
2023/05/25 03:27:19;;;;;;;5.93;3.92;;;;;;;7.40;91.57;102733.91;6248831;22;20013;-75
2023/05/25 03:29:50;;;;;;;5.78;3.83;;;;;;;7.41;91.42;102732.00;6247402;22;20362;-75
2023/05/25 03:32:16;;;;;;;6.28;4.10;;;;;;;7.35;91.96;102736.88;6246911;22;20020;-75
2023/05/25 03:34:43;;;;;;;5.95;4.18;;;;;;;7.36;92.12;102747.13;6246880;22;20017;-75
2023/05/25 03:37:12;;;;;;;5.97;4.03;;;;;;;7.38;91.83;102740.69;6221796;22;20016;-76
2023/05/25 03:39:39;;;;;;;8.38;3.90;;;;;;;7.36;92.33;102741.81;6246347;22;20104;-75
2023/05/25 03:42:06;;;;;;;7.15;4.20;;;;;;;7.38;92.23;102738.81;6248688;22;20025;-75
2023/05/25 03:44:33;;;;;;;4.50;4.10;;;;;;;7.38;91.99;102736.16;6246688;22;20071;-75
2023/05/25 03:47:00;;;;;;;4.57;3.88;;;;;;;7.36;91.79;102727.81;6247707;22;20043;-75
2023/05/25 03:49:27;;;;;;;6.65;4.03;;;;;;;7.34;91.64;102730.81;6221314;22;20020;-75
2023/05/25 03:51:58;;;;;;;6.70;3.80;;;;;;;7.33;91.04;102731.19;6247748;22;20457;-75
2023/05/25 03:54:25;;;;;;;5.03;3.47;;;;;;;7.35;91.14;102736.88;6246425;22;20017;-75
2023/05/25 03:56:52;;;;;;;6.55;4.03;;;;;;;7.36;91.18;102735.75;6247212;22;20421;-75
2023/05/25 03:59:18;;;;;;;3.70;3.40;;;;;;;7.34;90.89;102738.00;6246415;22;20492;-75
2023/05/25 04:01:45;;;;;;;5.70;3.42;;;;;;;7.33;90.86;102734.59;6247390;22;20453;-75
2023/05/25 04:04:12;;;;;;;9.10;4.43;;;;;;;7.29;90.75;102731.16;6248180;22;20016;-75
2023/05/25 04:06:39;;;;;;;12.95;3.85;;;;;;;7.32;91.02;102740.28;6248880;22;20013;-75
2023/05/25 04:09:06;;;;;;;6.82;3.92;;;;;;;7.31;90.83;102749.34;6246853;22;20486;-75
2023/05/25 04:11:33;;;;;;;7.22;3.53;;;;;;;7.33;90.47;102737.25;6248704;22;20021;-75
2023/05/25 04:13:59;;;;;;;4.38;4.03;;;;;;;7.35;90.63;102739.53;6221818;22;20032;-75
2023/05/25 04:16:28;;;;;;;4.32;3.72;;;;;;;7.39;90.74;102742.97;6246243;22;20074;-75
2023/05/25 04:18:57;;;;;;;8.77;3.70;;;;;;;7.40;90.50;102746.38;6246148;22;20024;-75
2023/05/25 04:21:23;;;;;;;6.25;3.92;;;;;;;7.41;90.64;102748.66;6246412;22;20083;-75
2023/05/25 04:23:50;;;;;;;4.13;3.72;;;;;;;7.47;90.83;102757.03;6247198;22;20021;-75
2023/05/25 04:26:17;;;;;;;5.07;4.35;;;;;;;7.46;90.48;102758.94;6246207;22;20056;-75
2023/05/25 04:28:47;;;;;;;6.60;3.42;;;;;;;7.49;90.92;102766.13;6246821;22;20036;-75
2023/05/25 04:31:34;;;;;;;6.75;3.97;;;;;;;7.53;91.09;102771.47;6246877;22;20017;-76
2023/05/25 04:34:13;;;;;;;6.35;4.03;;;;;;;7.57;90.73;102765.06;6248355;22;20094;-75
2023/05/25 04:36:48;;;;;;;5.65;3.97;;;;;;;7.60;91.06;102766.19;6247330;22;20674;-75
2023/05/25 04:39:15;;;;;;;9.55;4.53;;;;;;;7.88;91.34;102766.38;6221186;22;20107;-75
2023/05/25 04:41:47;;;;;;;5.60;4.00;;;;;;;8.45;89.68;102771.16;6247028;22;20020;-75
2023/05/25 04:44:14;;;;;;;8.15;4.63;;;;;;;8.55;88.87;102773.84;6248623;22;20033;-75
2023/05/25 04:46:44;;;;;;;9.40;4.20;;;;;;;8.80;88.50;102776.53;6221824;22;20411;-75
2023/05/25 04:49:17;;;;;;;7.22;4.18;;;;;;;9.53;85.88;102781.47;6222521;22;20362;-75
2023/05/25 04:51:44;;;;;;;4.25;3.83;;;;;;;10.46;81.95;102780.03;6248385;22;20108;-75
2023/05/25 04:54:11;;;;;;;7.00;4.32;;;;;;;11.17;78.43;102781.44;6247773;22;20023;-75
2023/05/25 04:56:38;;;;;;;4.45;4.00;;;;;;;11.81;75.64;102794.19;6247710;22;20147;-75
2023/05/25 04:59:05;;;;;;;5.00;4.28;;;;;;;12.90;72.29;102791.22;6248176;22;20024;-75
2023/05/25 05:01:33;;;;;;;4.75;4.32;;;;;;;14.59;66.38;102794.53;6247861;22;20028;-75
2023/05/25 05:04:01;;;;;;;5.20;4.68;;;;;;;15.92;60.79;102793.50;6248431;22;20013;-75
2023/05/25 05:06:28;;;;;;;5.50;4.95;;;;;;;16.84;57.70;102802.66;6247870;22;20021;-75
2023/05/25 05:08:55;;;;;;;8.35;4.90;;;;;;;17.43;55.79;102806.47;6248474;22;20020;-76
2023/05/25 05:11:22;;;;;;;6.00;4.43;;;;;;;17.97;53.99;102814.22;6249705;22;20032;-76
2023/05/25 05:13:49;;;;;;;5.35;4.85;;;;;;;18.55;53.94;102808.88;6248223;22;20509;-75
2023/05/25 05:16:16;;;;;;;9.68;5.22;;;;;;;19.13;53.17;102813.53;6247623;22;20462;-76
2023/05/25 05:18:42;;;;;;;13.25;5.43;;;;;;;19.58;50.56;102807.41;6248318;22;20021;-76
2023/05/25 05:21:09;;;;;;;9.93;5.50;;;;;;;20.01;50.59;102813.56;6223022;22;20021;-76
2023/05/25 05:23:36;;;;;;;10.15;5.95;;;;;;;20.15;50.13;102810.22;6223003;22;20012;-76
2023/05/25 05:26:03;;;;;;;19.00;6.00;;;;;;;20.57;50.12;102812.91;6250461;22;20035;-76
2023/05/25 05:28:30;;;;;;;11.60;5.47;;;;;;;20.79;48.94;102812.66;6248190;22;20012;-76
2023/05/25 05:30:57;;;;;;;11.93;6.20;;;;;;;20.94;48.89;102816.13;6222622;22;20067;-76
2023/05/25 05:33:24;;;;;;;11.13;6.18;;;;;;;20.85;49.99;102829.72;6247549;22;20262;-76
2023/05/25 05:35:51;;;;;;;13.00;6.30;;;;;;;20.82;49.51;102830.66;6248319;22;20427;-76
2023/05/25 05:38:20;;;;;;;10.35;6.47;;;;;;;20.70;50.08;102825.47;6247373;22;20012;-76
2023/05/25 05:40:47;;;;;;;9.98;6.50;;;;;;;20.91;49.97;102824.44;6248167;22;20017;-75
2023/05/25 05:43:18;;;;;;;13.48;6.45;;;;;;;20.93;49.37;102830.88;6248143;22;20023;-76
2023/05/25 05:45:45;;;;;;;10.57;6.30;;;;;;;20.78;50.34;102837.47;6250374;22;20055;-76
2023/05/25 05:48:12;;;;;;;12.02;6.25;;;;;;;20.51;50.40;102832.94;6248449;22;20096;-75
2023/05/25 05:50:39;;;;;;;11.40;6.63;;;;;;;19.79;52.26;102834.66;6248276;22;20028;-76
2023/05/25 05:53:08;;;;;;;10.88;7.05;;;;;;;19.39;54.03;102842.94;6245709;22;20017;-75
2023/05/25 05:55:35;;;;;;;14.77;7.32;;;;;;;19.00;54.52;102837.19;6246288;22;20020;-74
2023/05/25 05:58:02;;;;;;;13.43;6.53;;;;;;;18.93;55.27;102849.03;6246270;22;20084;-75
2023/05/25 06:00:29;;;;;;;11.75;6.35;;;;;;;18.81;56.15;102846.44;6245480;22;20024;-75
2023/05/25 06:02:55;;;;;;;12.55;6.60;;;;;;;18.20;57.21;102848.00;6250863;22;20092;-76
2023/05/25 06:05:25;;;;;;;11.45;6.68;;;;;;;17.85;58.21;102858.13;6248429;22;20020;-76
2023/05/25 06:07:53;;;;;;;9.05;6.60;;;;;;;17.84;58.35;102857.38;6248807;22;20028;-75
2023/05/25 06:10:21;;;;;;;10.52;6.45;;;;;;;17.31;59.68;102854.53;6248820;22;20020;-75
2023/05/25 06:12:47;;;;;;;13.68;7.13;;;;;;;16.95;61.10;102860.31;6248826;22;20016;-75
2023/05/25 06:15:14;;;;;;;16.83;6.63;;;;;;;16.70;61.11;102863.03;6247996;22;20020;-75
2023/05/25 06:17:42;;;;;;;12.43;6.80;;;;;;;16.53;62.60;102866.97;6249069;22;20152;-76
2023/05/25 06:20:10;;;;;;;13.63;6.72;;;;;;;16.57;61.91;102870.31;6248109;22;20370;-78
2023/05/25 06:22:36;;;;;;;9.35;6.18;;;;;;;16.49;62.43;102869.00;6248884;22;20458;-75
2023/05/25 06:25:03;;;;;;;14.00;6.50;;;;;;;16.23;62.85;102869.00;6250735;22;20080;-77
2023/05/25 06:27:30;;;;;;;10.73;6.32;;;;;;;15.89;63.53;102860.75;6248717;22;20439;-75
2023/05/25 06:29:56;;;;;;;13.70;6.25;;;;;;;15.73;64.53;102869.59;6248337;22;20466;-75
2023/05/25 06:32:23;;;;;;;12.32;6.22;;;;;;;15.73;64.78;102871.50;6248432;22;20027;-77
2023/05/25 06:34:49;;;;;;;14.25;6.70;;;;;;;15.77;64.32;102870.25;6248986;22;20021;-75
2023/05/25 06:37:17;;;;;;;10.75;6.05;;;;;;;16.02;64.37;102869.56;6247942;22;20013;-78
2023/05/25 06:39:45;;;;;;;10.38;6.10;;;;;;;16.01;64.22;102870.75;6248462;22;20067;-77
2023/05/25 06:42:11;;;;;;;12.00;6.65;;;;;;;16.06;63.93;102867.53;6250280;22;20051;-77
2023/05/25 06:44:48;;;;;;;12.73;6.20;;;;;;;16.17;64.44;102876.06;6248906;22;20016;-76
2023/05/25 06:47:16;;;;;;;12.55;6.50;;;;;;;16.42;64.00;102877.28;6248379;22;20438;-77
2023/05/25 06:49:43;;;;;;;13.57;6.43;;;;;;;16.66;63.19;102883.91;6248566;22;20027;-78
2023/05/25 06:52:09;;;;;;;13.07;6.50;;;;;;;16.68;62.29;102884.22;6250278;22;20044;-78
2023/05/25 06:54:36;;;;;;;9.55;5.97;;;;;;;16.57;62.10;102879.13;6250890;22;20460;-78
2023/05/25 06:57:02;;;;;;;12.35;5.97;;;;;;;16.48;62.79;102879.00;6247961;22;20443;-77
2023/05/25 06:59:29;;;;;;;11.00;6.30;;;;;;;16.54;62.56;102873.84;6250343;22;20028;-77
2023/05/25 07:01:57;;;;;;;12.02;6.25;;;;;;;16.64;62.76;102884.34;6250545;22;20016;-77
2023/05/25 07:04:24;;;;;;;10.38;5.85;;;;;;;16.67;62.33;102885.41;6248603;22;20734;-76
2023/05/25 07:06:51;;;;;;;9.15;5.90;;;;;;;16.63;62.07;102892.81;6250604;22;20012;-76
2023/05/25 07:09:18;;;;;;;10.88;5.80;;;;;;;16.51;62.07;102898.91;6250001;22;20028;-76
2023/05/25 07:11:44;;;;;;;11.65;6.10;;;;;;;16.51;62.09;102898.91;6249764;22;20362;-76
2023/05/25 07:14:10;;;;;;;10.35;5.28;;;;;;;16.72;62.69;102902.94;6250221;22;20078;-77
2023/05/25 07:16:37;;;;;;;15.02;6.05;;;;;;;16.99;60.92;102904.00;6250653;22;20039;-77
2023/05/25 07:19:04;;;;;;;12.30;5.60;;;;;;;17.42;60.42;102896.50;6250604;22;20029;-76
2023/05/25 07:21:32;;;;;;;11.40;5.78;;;;;;;17.44;60.06;102902.97;6249109;22;20451;-76
2023/05/25 07:23:59;;;;;;;10.32;5.57;;;;;;;17.29;59.18;102901.91;6250426;22;20446;-76
2023/05/25 07:26:26;;;;;;;8.18;5.13;;;;;;;17.31;59.29;102905.69;6249462;22;20359;-76
2023/05/25 07:28:53;;;;;;;11.60;5.78;;;;;;;17.36;59.29;102903.63;6248734;22;20027;-76
2023/05/25 07:31:21;;;;;;;10.85;5.78;;;;;;;17.62;59.36;102902.34;6250055;22;20454;-76
2023/05/25 07:33:47;;;;;;;12.98;6.30;;;;;;;17.85;58.99;102898.53;6250757;22;20017;-76
2023/05/25 07:36:14;;;;;;;9.02;5.35;;;;;;;17.81;57.72;102900.59;6250080;22;20087;-76
2023/05/25 07:38:41;;;;;;;11.35;5.30;;;;;;;17.69;58.64;102902.16;6250439;22;20134;-76
2023/05/25 07:41:07;;;;;;;13.50;5.78;;;;;;;17.61;58.02;102904.28;6249487;22;20075;-76
2023/05/25 07:43:34;;;;;;;10.68;5.25;;;;;;;17.43;58.50;102906.84;6248601;22;20016;-76
2023/05/25 07:46:01;;;;;;;11.65;4.93;;;;;;;17.33;58.07;102918.72;6248835;22;20055;-76
2023/05/25 07:48:27;;;;;;;7.72;5.20;;;;;;;17.08;58.13;102921.44;6250016;22;20016;-76
2023/05/25 07:50:54;;;;;;;8.93;5.25;;;;;;;17.07;59.30;102919.94;6250095;22;20443;-76
2023/05/25 07:53:21;;;;;;;7.13;5.22;;;;;;;17.22;59.91;102929.06;6250067;22;20020;-76
2023/05/25 07:55:47;;;;;;;9.68;5.03;;;;;;;17.27;59.36;102928.50;6249859;22;20020;-76
2023/05/25 07:58:14;;;;;;;12.25;5.78;;;;;;;17.17;59.58;102926.94;6249641;22;20025;-76
2023/05/25 08:00:41;;;;;;;15.98;5.68;;;;;;;17.22;60.33;102929.06;6250277;22;20402;-76
2023/05/25 08:03:08;;;;;;;16.77;6.07;;;;;;;17.29;60.57;102931.53;6250014;22;20071;-76
2023/05/25 08:05:35;;;;;;;17.75;7.30;;;;;;;17.26;60.72;102935.06;6250182;22;20059;-76
2023/05/25 08:08:02;;;;;;;12.60;5.60;;;;;;;17.26;59.89;102940.47;6250319;22;20473;-75
2023/05/25 08:10:31;;;;;;;9.45;6.20;;;;;;;17.22;59.47;102937.88;6249274;22;20017;-76
2023/05/25 08:12:58;;;;;;;10.05;6.00;;;;;;;17.26;59.93;102943.16;6250023;22;20465;-76
2023/05/25 08:15:25;;;;;;;12.85;5.63;;;;;;;17.38;59.29;102939.69;6249810;22;20019;-76
2023/05/25 08:17:52;;;;;;;11.35;5.93;;;;;;;17.37;58.80;102943.56;6250173;22;20069;-75
2023/05/25 08:20:18;;;;;;;10.77;5.93;;;;;;;17.38;59.30;102938.94;6249709;22;20024;-76
2023/05/25 08:22:45;;;;;;;7.30;5.35;;;;;;;17.48;59.02;102943.25;6250010;22;20468;-79
2023/05/25 08:25:12;;;;;;;12.20;5.47;;;;;;;17.55;58.01;102943.00;6250109;22;20020;-79
2023/05/25 08:27:38;;;;;;;12.25;5.75;;;;;;;17.59;57.89;102944.38;6251273;22;20047;-79
2023/05/25 08:30:05;;;;;;;10.25;5.03;;;;;;;17.73;57.63;102953.22;6251284;22;20020;-78
2023/05/25 08:32:32;;;;;;;9.93;4.88;;;;;;;17.75;57.40;102961.59;6251638;22;20410;-79
2023/05/25 08:35:00;;;;;;;11.52;5.70;;;;;;;17.89;56.73;102961.13;6251530;22;20439;-78
2023/05/25 08:37:28;;;;;;;9.05;4.75;;;;;;;17.86;56.14;102964.69;6250948;22;20059;-78
2023/05/25 08:39:54;;;;;;;9.50;4.70;;;;;;;17.86;54.95;102957.38;6250912;22;20103;-79
2023/05/25 08:42:22;;;;;;;11.52;4.55;;;;;;;17.85;55.12;102960.50;6249584;22;20016;-78
2023/05/25 08:44:49;;;;;;;7.32;4.60;;;;;;;17.90;54.70;102959.94;6251404;22;20478;-78
2023/05/25 08:47:16;;;;;;;9.45;4.82;;;;;;;17.90;55.61;102949.94;6250778;22;20017;-79
2023/05/25 08:49:43;;;;;;;11.95;4.85;;;;;;;18.14;55.22;102952.19;6251305;22;20017;-79
2023/05/25 08:52:13;;;;;;;9.90;4.20;;;;;;;18.26;54.67;102946.72;6249051;22;20021;-78
2023/05/25 08:54:43;;;;;;;8.07;4.20;;;;;;;18.31;53.67;102951.56;6250882;22;20016;-79
2023/05/25 08:57:19;;;;;;;5.63;3.60;;;;;;;18.77;53.46;102945.69;6248712;22;20036;-78
2023/05/25 08:59:54;;;;;;;7.03;3.60;;;;;;;18.95;52.78;102946.50;6249338;22;20020;-79
2023/05/25 09:02:27;;;;;;;9.93;4.05;;;;;;;18.74;52.76;102947.31;6249708;22;20114;-78
2023/05/25 09:04:53;;;;;;;8.35;3.70;;;;;;;18.57;52.24;102951.41;6249733;22;20088;-78
2023/05/25 09:07:20;;;;;;;8.65;4.15;;;;;;;18.47;51.72;102947.13;6250935;22;20027;-77
2023/05/25 09:09:47;;;;;;;11.10;3.97;;;;;;;18.26;53.66;102948.69;6251304;22;20017;-80
2023/05/25 09:12:15;;;;;;;11.98;4.75;;;;;;;18.32;53.20;102944.97;6250114;22;20083;-78
2023/05/25 09:14:46;;;;;;;9.35;4.35;;;;;;;18.35;53.32;102951.44;6249571;22;20076;-79
2023/05/25 09:17:15;;;;;;;6.43;3.10;;;;;;;18.23;53.10;102953.00;6250612;22;20017;-79
2023/05/25 09:19:42;;;;;;;5.95;3.78;;;;;;;18.72;51.94;102957.06;6249347;22;20439;-78
2023/05/25 09:22:10;;;;;;;4.28;3.30;;;;;;;19.13;51.76;102948.50;6249437;22;20016;-79
2023/05/25 09:24:43;;;;;;;6.40;3.60;;;;;;;19.45;49.64;102951.88;6251046;22;20052;-79
2023/05/25 09:27:11;;;;;;;8.63;3.78;;;;;;;19.55;48.48;102954.16;6248996;22;20025;-79
2023/05/25 09:29:37;;;;;;;5.80;3.22;;;;;;;19.94;49.74;102943.66;6251210;22;20024;-79
2023/05/25 09:32:05;;;;;;;6.90;3.83;;;;;;;20.19;46.94;102939.84;6251459;22;20020;-78
2023/05/25 09:34:35;;;;;;;7.18;4.00;;;;;;;20.12;46.81;102948.28;6250988;22;20013;-79
2023/05/25 09:37:14;;;;;;;12.63;3.97;;;;;;;19.83;47.85;102948.75;6223099;22;20095;-79
2023/05/25 09:39:42;;;;;;;7.57;3.78;;;;;;;20.21;47.49;102942.88;6251203;22;20016;-79
2023/05/25 09:42:10;;;;;;;6.93;3.50;;;;;;;20.58;45.92;102943.53;6250711;22;20013;-78
2023/05/25 09:44:37;;;;;;;5.57;3.00;;;;;;;20.58;45.04;102938.88;6251013;22;20012;-79
2023/05/25 09:47:05;;;;;;;5.55;3.20;;;;;;;20.73;45.15;102940.94;6251286;22;20021;-82
2023/05/25 09:49:31;;;;;;;6.05;3.67;;;;;;;20.89;45.16;102944.00;6251126;22;20390;-81
2023/05/25 09:51:59;;;;;;;4.75;3.25;;;;;;;20.63;45.21;102943.66;6250750;22;20468;-81
2023/05/25 09:54:26;;;;;;;5.25;3.00;;;;;;;20.39;46.26;102937.44;6248734;22;20035;-80
2023/05/25 09:56:53;;;;;;;5.53;3.10;;;;;;;20.05;47.22;102937.78;6250698;22;20063;-81
2023/05/25 09:59:21;;;;;;;5.18;3.28;;;;;;;19.95;47.21;102942.47;6249241;22;20021;-81
2023/05/25 10:01:52;;;;;;;6.50;3.20;;;;;;;19.72;47.22;102945.75;6250097;22;20048;-82
2023/05/25 10:04:22;;;;;;;6.32;3.53;;;;;;;19.56;48.02;102936.75;6250526;22;20103;-81
2023/05/25 10:06:50;;;;;;;12.38;3.70;;;;;;;19.55;48.79;102943.38;6248188;22;20467;-81
2023/05/25 10:09:18;;;;;;;7.35;3.35;;;;;;;19.63;48.99;102941.09;6248210;22;20032;-79
2023/05/25 10:11:46;;;;;;;3.72;2.88;;;;;;;19.69;49.07;102943.94;6250661;22;20112;-77
2023/05/25 10:14:16;;;;;;;5.85;3.80;;;;;;;19.52;48.25;102941.56;6248662;22;20024;-79
2023/05/25 10:16:47;;;;;;;4.90;3.30;;;;;;;19.50;49.20;102937.78;6248721;22;20477;-79
2023/05/25 10:19:36;;;;;;;9.20;3.28;;;;;;;19.80;48.58;102938.84;6249230;22;20013;-78
2023/05/25 10:22:12;;;;;;;6.82;3.13;;;;;;;19.97;46.56;102943.50;6250225;22;20032;-79
2023/05/25 10:24:50;;;;;;;5.50;2.88;;;;;;;19.75;46.35;102945.59;6250707;22;20044;-79
2023/05/25 10:27:23;;;;;;;8.95;3.17;;;;;;;19.76;46.63;102951.75;6248445;22;20021;-79
2023/05/25 10:29:55;;;;;;;5.05;2.97;;;;;;;19.87;47.67;102944.72;6250920;22;20017;-79
2023/05/25 10:32:23;;;;;;;7.00;3.20;;;;;;;19.96;47.14;102949.38;6250591;22;20036;-80
2023/05/25 10:34:51;;;;;;;7.30;3.15;;;;;;;19.96;48.06;102949.38;6250347;22;20023;-79
2023/05/25 10:37:18;;;;;;;3.00;2.70;;;;;;;20.03;47.75;102954.44;6250235;22;20021;-79
2023/05/25 10:39:45;;;;;;;4.95;3.15;;;;;;;19.92;47.12;102960.31;6250574;22;20044;-79
2023/05/25 10:42:12;;;;;;;6.40;3.08;;;;;;;20.10;47.65;102956.09;6248567;22;20048;-78
2023/05/25 10:44:41;;;;;;;5.10;3.03;;;;;;;20.10;47.54;102954.13;6250704;22;20067;-80
2023/05/25 10:47:08;;;;;;;4.07;3.05;;;;;;;20.16;46.55;102952.34;6250117;22;20016;-80
2023/05/25 10:49:54;;;;;;;3.65;2.90;;;;;;;20.21;46.40;102950.97;6250061;22;20020;-78
2023/05/25 10:52:21;;;;;;;5.00;2.78;;;;;;;20.28;46.27;102956.06;6250250;22;20015;-78
2023/05/25 10:54:48;;;;;;;4.85;3.08;;;;;;;20.26;46.02;102945.72;6250665;22;20071;-78
2023/05/25 10:57:19;;;;;;;6.53;3.10;;;;;;;20.17;46.34;102955.78;6249882;22;20447;-78
2023/05/25 11:00:07;;;;;;;6.28;2.80;;;;;;;20.14;45.78;102949.31;6250520;22;20075;-78
2023/05/25 11:02:49;;;;;;;2.72;2.28;;;;;;;20.01;45.02;102947.97;6250466;22;20016;-78
2023/05/25 11:05:24;;;;;;;3.17;2.35;;;;;;;19.90;43.63;102948.47;6247493;22;20063;-78
2023/05/25 11:07:56;;;;;;;4.60;2.42;;;;;;;19.83;43.42;102948.75;6250686;22;20021;-78
2023/05/25 11:10:47;;;;;;;4.97;2.20;;;;;;;19.91;44.38;102949.97;6250204;22;20013;-78
2023/05/25 11:13:43;;;;;;;4.63;2.92;;;;;;;20.18;44.23;102955.34;6249742;22;20016;-78
2023/05/25 11:16:16;;;;;;;4.65;2.63;;;;;;;20.27;44.07;102943.75;6223516;22;20088;-78
2023/05/25 11:18:48;;;;;;;5.10;3.25;;;;;;;20.30;45.05;102946.31;6247201;22;20055;-76
2023/05/25 11:21:17;;;;;;;6.78;3.22;;;;;;;20.29;44.53;102944.81;6248738;22;20020;-77
2023/05/25 11:23:55;;;;;;;6.55;3.03;;;;;;;20.22;45.60;102947.81;6249182;22;20617;-77
2023/05/25 11:26:25;;;;;;;5.78;3.38;;;;;;;20.20;45.40;102949.47;6248676;22;20019;-77
2023/05/25 11:28:52;;;;;;;4.60;3.30;;;;;;;20.12;45.62;102954.44;6249839;22;20103;-77
2023/05/25 11:31:22;;;;;;;5.57;3.83;;;;;;;19.91;46.66;102950.72;6250010;22;20425;-77
2023/05/25 11:33:56;;;;;;;7.45;4.05;;;;;;;19.95;47.42;102951.31;6249899;22;20009;-77